Terminal Aerodrome Forecast
Issued by NWS Indianapolis, IN

Home | Current Version | Previous Version | Text Only | Print | Product List | Glossary On
Versions: 1 2 3 4 5 6 7 8 9 10 11 12 13 14 15 16 17 18 19 20 21 22 23 24 25 26 27 28 29 30
959
FTUS43 KIND 292045 AAA
TAFIND
TAF AMD
KIND 292045Z 2921/3024 34009KT P6SM SCT035 BKN250
     FM300300 05011KT P6SM SCT040 BKN150
     FM300900 10012KT P6SM VCSH OVC070
     FM301200 10013KT 5SM -SHRA BR OVC025
     FM301800 12013G20KT 4SM -RA VCTS OVC007CB=

USA.gov is the U.S. government's official web portal to all federal, state and local government web resources and services.